This is the latest recevied weather packets stored in our database for station/object DM4XI-13. If no packets are shown the sender has not sent any weather packets the latest 10 day(s).
| Time | Temp. | Humidity | Pressure | Rain* | Wind** | Luminosity | Snow |
|---|---|---|---|---|---|---|---|
| 1777879181 | 19.44° C | 45% | 1012.9 hPa | 0 mm | 0.45 m/s, 242° | 296 W/m² | - |
| 1777879120 | 19.44° C | 44% | 1013 hPa | 0 mm | 0.89 m/s, 249° | 301 W/m² | - |
| 1777879059 | 18.89° C | 44% | 1012.9 hPa | 0 mm | 1.34 m/s, 270° | 342 W/m² | - |
| 1777878999 | 18.89° C | 46% | 1013.2 hPa | 0 mm | 0.45 m/s, 264° | 382 W/m² | - |
| 1777878937 | 19.44° C | 44% | 1013.1 hPa | 0 mm | 0.89 m/s, 289° | 388 W/m² | - |
| 1777878877 | 19.44° C | 46% | 1013 hPa | 0 mm | 0.89 m/s, 282° | 310 W/m² | - |
| 1777878815 | 18.89° C | 46% | 1012.9 hPa | 0 mm | 0.45 m/s, 242° | 329 W/m² | - |
| 1777878755 | 18.89° C | 46% | 1013 hPa | 0 mm | 0.45 m/s, 248° | 320 W/m² | - |
| 1777878693 | 18.89° C | 45% | 1013 hPa | 0 mm | 0.89 m/s, 200° | 307 W/m² | - |
| 1777878632 | 18.89° C | 44% | 1012.9 hPa | 0 mm | 0.45 m/s, 220° | 305 W/m² | - |
| 1777878571 | 18.89° C | 47% | 1013 hPa | 0 mm | 0 m/s | 306 W/m² | - |
| 1777878510 | 18.89° C | 47% | 1013 hPa | 0 mm | 0.45 m/s, 210° | 274 W/m² | - |
| 1777878449 | 18.33° C | 47% | 1012.9 hPa | 0 mm | 0.89 m/s, 298° | 270 W/m² | - |
| 1777878388 | 18.33° C | 48% | 1013.1 hPa | 0 mm | 0.45 m/s, 211° | 271 W/m² | - |
| 1777878327 | 18.33° C | 47% | 1013.2 hPa | 0 mm | 0.45 m/s, 220° | 295 W/m² | - |
| 1777878267 | 18.33° C | 49% | 1013.1 hPa | 0 mm | 0.45 m/s, 198° | 283 W/m² | - |
| 1777878206 | 17.78° C | 49% | 1013 hPa | 0 mm | 0.45 m/s, 214° | 273 W/m² | - |
| 1777878145 | 17.78° C | 49% | 1013.1 hPa | 0 mm | 0.45 m/s, 220° | 274 W/m² | - |
| 1777878084 | 17.78° C | 49% | 1013.1 hPa | 0 mm | 0.89 m/s, 279° | 281 W/m² | - |
| 1777878023 | 17.78° C | 51% | 1013 hPa | 0 mm | 0 m/s | 250 W/m² | - |
| 1777877962 | 17.78° C | 53% | 1013.1 hPa | 0 mm | 0 m/s | 249 W/m² | - |
| 1777877901 | 17.78° C | 52% | 1013.2 hPa | 0 mm | 0.45 m/s, 214° | 239 W/m² | - |
| 1777877840 | 17.78° C | 51% | 1013 hPa | 0 mm | 0.45 m/s, 204° | 250 W/m² | - |
| 1777877779 | 17.78° C | 51% | 1013 hPa | 0 mm | 0 m/s | 235 W/m² | - |
| 1777877718 | 18.33° C | 53% | 1013 hPa | 0 mm | 0.89 m/s, 189° | 224 W/m² | - |
* Rain latest hour (hover to see other rain measurements)
** Current wind speed in m/s (hover to see current wind gust speed)